Messages - map view · info · telemetry · weather · raw · status · beacons · messages · bulletins · browse · moving · my account
Callsign:
Show:

Loading message packets...

APRS messages are stored for 14 days. It is possible to search using wildcards (*?) after a prefix.

2019-04-22 12:00:27 EDT: EMAIL-2>VA7MNW: Email sent to va7jrg@winlink.org
2019-04-22 12:01:14 EDT: KIMMWW>BOM-CANCL: 221600z,WIND,WA_MW002>003
2019-04-22 12:01:20 EDT: PILMWW>BOM-CANCL: 221600z,WIND,WA_MW002>003
2019-04-22 12:01:21 EDT: KC1BUF-9>KC1DMV-7: whats up
2019-04-22 12:01:26 EDT: KIMMWW>BOM-CANCL: 221601z,WIND,WA_MW002>003
2019-04-22 12:01:32 EDT: PILMWW>BOM-CANCL: 221601z,WIND,WA_MW002>003
2019-04-22 12:01:40 EDT: DB0TS-10>DB0TS-9: T#001,000,000,000,000,000,00000000,Test
2019-04-22 12:01:49 EDT: G0RSQ>G4FKH: A,-102.8,-104.4,-105.8,B,-94.9,-96.5,-97.6,C,-100.2,-110.9,-111.9,D,-102.8,-104.1,-105.2,E,-105,-111.4,-112.7
2019-04-22 12:02:12 EDT: VK2GJ-2>VK2GJ-7: Directs=VK2RHR-1 VK2AMW-1 VK2BWI-3
2019-04-22 12:02:12 EDT: KC1BUF-9>KC1DMV-7: whats up
2019-04-22 12:02:20 EDT: WLNK-1>KC1BUF-9: APRSLink recorded the following problem while in communication wit
2019-04-22 12:02:39 EDT: FW0690>FW0690: ZBRT.PVar:-2, PLst:10216
2019-04-22 12:02:55 EDT: DB0LUH-1>LU1HVK-1: rejUISS54}
2019-04-22 12:03:12 EDT: VK2GJ-2>VK2GJ-7: Directs=VK2RHR-1 VK2AMW-1
2019-04-22 12:03:16 EDT: KC1BUF-9>KC1DMV-7: whats up
2019-04-22 12:03:23 EDT: SMSGTE>K2QV-7: @6077591305 It does this also
2019-04-22 12:03:56 EDT: SMSGTE>K2QV-7: @6077591305 It does this also
2019-04-22 12:03:58 EDT: LOTOJASMS>KG7AFQ-10: BAKERSMS - SA
2019-04-22 12:04:09 EDT: BEAR>KG7AFQ-10: BAKERSMS - SA
2019-04-22 12:04:12 EDT: EA1QV-5>EA1CIU-1: saludos Tomas
2019-04-22 12:04:20 EDT: KC1BUF-9>KC1DMV-7: whats up
2019-04-22 12:04:32 EDT: SM5RVH-7>SM5XAV-7: hallo i solskenet ;-)
2019-04-22 12:04:36 EDT: DF5KX-9>APRSPRO: REY1S1gtOSAgREVMPzE1NTU5NDkwNzYuMDk3NDQ=
2019-04-22 12:04:57 EDT: SMSGTE>K2QV-7: @6077591305 It does this also
2019-04-22 12:05:24 EDT: KC1BUF-9>KC1DMV-7: whats up
2019-04-22 12:05:55 EDT: LU1HVK-1>APRS: lu1hvk@qsl.net Saludos de Leones - Cordoba AR...
2019-04-22 12:06:27 EDT: SMSGTE>K2QV-7: @6077591305 It does this also
2019-04-22 12:07:27 EDT: KM4KAW-9>KM4KAW: SitRep: 11.85032 80.60f
2019-04-22 12:07:39 EDT: FW0690>FW0690: UPTM.18 days, 08:00:42
2019-04-22 12:07:42 EDT: SHLBTP>SHLBTP: Info - Cabinet Temp = 80.6F Vcc = 13.4V
2019-04-22 12:08:05 EDT: IS0UYN>IS0AML-13: Ciao Massimo Buona Pasqua
2019-04-22 12:08:12 EDT: VK2GJ-2>VK2GJ-7: Directs=VK2RHR-1 VK2AMW-1
2019-04-22 12:08:27 EDT: SMSGTE>K2QV-7: @6077591305 It does this also
2019-04-22 12:09:08 EDT: VE3BEO-7>VE3GNP: :-)
2019-04-22 12:09:44 EDT: SP3WBY-7>SP3WBY: 73
2019-04-22 12:10:20 EDT: WLNK-1>KC1BUF-9: APRSLink recorded the following problem while in communication wit
2019-04-22 12:10:55 EDT: DB0TS-10>DB0TS-9: T#001,000,000,000,000,000,00000000,Test
2019-04-22 12:10:55 EDT: DB0LUH-1>LU1HVK-1: rejUISS54}
2019-04-22 12:10:59 EDT: WD1L-10>W1JT-9: Got it, Nice...
2019-04-22 12:11:11 EDT: W1JT-9>WD1L-10: If I don't answer, try me on the Whitman Repeater
2019-04-22 12:11:12 EDT: VK2GJ-2>VK2GJ-7: Directs=VK2AMW-1
2019-04-22 12:11:13 EDT: EA1QV-5>EA1CIU: ahora si
2019-04-22 12:11:51 EDT: GW8SZL-2>ANSRVR: K ECLIPSE APRSDROID APRSIS32 APRSISCAFE BALLOON HFMOBILE IRELAND
2019-04-22 12:11:52 EDT: GW8SZL-2>ANSRVR: K JOTA JT65 PLANES ROCKETS SCOUTS SOTA UNICAM
2019-04-22 12:11:59 EDT: G0RSQ>G4FKH: A,-98.8,-104.3,-105.4,B,-94.3,-96.5,-97.8,C,-101.4,-110.7,-111.7,D,-102.6,-104.1,-105.1,E,-104.2,-111.3,-113
2019-04-22 12:12:12 EDT: VK2GJ-2>VK2GJ-7: Directs=VK2AMW-1 VK2BWI-3
2019-04-22 12:12:15 EDT: N7QME-2>N7QME: hum 59 65 81 49 67 68 63 60
2019-04-22 12:12:27 EDT: KM4KAW-9>KM4KAW: SitRep: 11.92128 81.38f
2019-04-22 12:13:04 EDT: EA1QV-5>EA1CIU: no se porque pero parece que no me recibes por aprs
2019-04-22 12:13:31 EDT: DU6DKL-6>EL-DW2JHA: Hello from Negros de KakoPK10lr
< previous
FAQ · Blog · Discussion group · Linking to aprs.fi · AIS sites · Service status · Database statistics · Advertising on aprs.fi · Technical details · API · Change log · Planned changes · Credits and thanks · Terms Of Service · iPhone/iPad APRS